sensor_id;sensor_type;location;lat;lon;timestamp;temperature;humidity
8231;DHT22;4156;50.908;6.974;2022-08-23T00:01:16;24.30;99.90
8231;DHT22;4156;50.908;6.974;2022-08-23T00:03:42;24.20;99.90
8231;DHT22;4156;50.908;6.974;2022-08-23T00:06:08;24.20;99.90
8231;DHT22;4156;50.908;6.974;2022-08-23T00:08:34;24.20;99.90
8231;DHT22;4156;50.908;6.974;2022-08-23T00:11:00;24.10;99.90
8231;DHT22;4156;50.908;6.974;2022-08-23T00:13:26;24.10;99.90
8231;DHT22;4156;50.908;6.974;2022-08-23T00:15:53;24.10;99.90
8231;DHT22;4156;50.908;6.974;2022-08-23T00:18:18;24.00;99.90
8231;DHT22;4156;50.908;6.974;2022-08-23T00:20:45;24.00;99.90
8231;DHT22;4156;50.908;6.974;2022-08-23T00:23:11;24.00;99.90
8231;DHT22;4156;50.908;6.974;2022-08-23T00:25:36;24.00;99.90
8231;DHT22;4156;50.908;6.974;2022-08-23T00:28:03;23.90;99.90
8231;DHT22;4156;50.908;6.974;2022-08-23T00:30:28;23.90;99.90
8231;DHT22;4156;50.908;6.974;2022-08-23T00:32:54;23.90;99.90
8231;DHT22;4156;50.908;6.974;2022-08-23T00:35:20;23.80;99.90
8231;DHT22;4156;50.908;6.974;2022-08-23T00:37:46;23.80;99.90
8231;DHT22;4156;50.908;6.974;2022-08-23T00:40:16;23.80;99.90
8231;DHT22;4156;50.908;6.974;2022-08-23T00:42:49;23.80;99.90
8231;DHT22;4156;50.908;6.974;2022-08-23T00:48:54;23.70;99.90
8231;DHT22;4156;50.908;6.974;2022-08-23T00:51:25;23.70;99.90
8231;DHT22;4156;50.908;6.974;2022-08-23T00:53:55;23.60;99.90
8231;DHT22;4156;50.908;6.974;2022-08-23T00:56:23;23.60;99.90
8231;DHT22;4156;50.908;6.974;2022-08-23T00:58:49;23.50;99.90
8231;DHT22;4156;50.908;6.974;2022-08-23T01:01:16;23.50;99.90
8231;DHT22;4156;50.908;6.974;2022-08-23T01:03:44;23.50;99.90
8231;DHT22;4156;50.908;6.974;2022-08-23T01:06:26;23.40;99.90
8231;DHT22;4156;50.908;6.974;2022-08-23T01:08:57;23.40;99.90
8231;DHT22;4156;50.908;6.974;2022-08-23T01:11:37;23.40;99.90
8231;DHT22;4156;50.908;6.974;2022-08-23T01:19:36;23.30;99.90
8231;DHT22;4156;50.908;6.974;2022-08-23T01:22:13;23.30;99.90
8231;DHT22;4156;50.908;6.974;2022-08-23T01:24:42;23.30;99.90
8231;DHT22;4156;50.908;6.974;2022-08-23T01:27:09;23.20;99.90
8231;DHT22;4156;50.908;6.974;2022-08-23T01:29:37;23.20;99.90
8231;DHT22;4156;50.908;6.974;2022-08-23T01:32:02;23.20;99.90
8231;DHT22;4156;50.908;6.974;2022-08-23T01:34:28;23.20;99.90
8231;DHT22;4156;50.908;6.974;2022-08-23T01:36:55;23.10;99.90
8231;DHT22;4156;50.908;6.974;2022-08-23T01:39:22;23.10;99.90
8231;DHT22;4156;50.908;6.974;2022-08-23T01:41:47;23.00;99.90
8231;DHT22;4156;50.908;6.974;2022-08-23T01:44:13;23.00;99.90
8231;DHT22;4156;50.908;6.974;2022-08-23T01:46:43;23.00;99.90
8231;DHT22;4156;50.908;6.974;2022-08-23T01:49:10;23.00;99.90
8231;DHT22;4156;50.908;6.974;2022-08-23T01:51:37;23.00;99.90
8231;DHT22;4156;50.908;6.974;2022-08-23T01:54:02;22.90;99.90
8231;DHT22;4156;50.908;6.974;2022-08-23T01:56:29;22.90;99.90
8231;DHT22;4156;50.908;6.974;2022-08-23T01:58:55;22.90;99.90
8231;DHT22;4156;50.908;6.974;2022-08-23T02:01:21;22.90;99.90
8231;DHT22;4156;50.908;6.974;2022-08-23T02:03:47;22.90;99.90
8231;DHT22;4156;50.908;6.974;2022-08-23T02:06:12;22.90;99.90
8231;DHT22;4156;50.908;6.974;2022-08-23T02:08:38;22.90;99.90
8231;DHT22;4156;50.908;6.974;2022-08-23T02:11:24;22.90;99.90
8231;DHT22;4156;50.908;6.974;2022-08-23T02:13:51;22.80;99.90
8231;DHT22;4156;50.908;6.974;2022-08-23T02:16:34;22.70;99.90
8231;DHT22;4156;50.908;6.974;2022-08-23T02:19:01;22.70;99.90
8231;DHT22;4156;50.908;6.974;2022-08-23T02:21:28;22.70;99.90
8231;DHT22;4156;50.908;6.974;2022-08-23T02:23:57;22.60;99.90
8231;DHT22;4156;50.908;6.974;2022-08-23T02:26:23;22.60;99.90
8231;DHT22;4156;50.908;6.974;2022-08-23T02:28:52;22.60;99.90
8231;DHT22;4156;50.908;6.974;2022-08-23T02:31:19;22.60;99.90
8231;DHT22;4156;50.908;6.974;2022-08-23T02:33:44;22.60;99.90
8231;DHT22;4156;50.908;6.974;2022-08-23T02:36:10;22.50;99.90
8231;DHT22;4156;50.908;6.974;2022-08-23T02:38:37;22.50;99.90
8231;DHT22;4156;50.908;6.974;2022-08-23T02:41:03;22.50;99.90
8231;DHT22;4156;50.908;6.974;2022-08-23T02:43:28;22.50;99.90
8231;DHT22;4156;50.908;6.974;2022-08-23T02:45:54;22.40;99.90
8231;DHT22;4156;50.908;6.974;2022-08-23T02:48:20;22.40;99.90
8231;DHT22;4156;50.908;6.974;2022-08-23T02:50:47;22.40;99.90
8231;DHT22;4156;50.908;6.974;2022-08-23T02:53:12;22.40;99.90
8231;DHT22;4156;50.908;6.974;2022-08-23T02:55:38;22.40;99.90
8231;DHT22;4156;50.908;6.974;2022-08-23T02:58:04;22.40;99.90
8231;DHT22;4156;50.908;6.974;2022-08-23T03:00:30;22.30;99.90
8231;DHT22;4156;50.908;6.974;2022-08-23T03:02:55;22.30;99.90
8231;DHT22;4156;50.908;6.974;2022-08-23T03:05:21;22.30;99.90
8231;DHT22;4156;50.908;6.974;2022-08-23T03:07:47;22.30;99.90
8231;DHT22;4156;50.908;6.974;2022-08-23T03:10:12;22.30;99.90
8231;DHT22;4156;50.908;6.974;2022-08-23T03:12:40;22.20;99.90
8231;DHT22;4156;50.908;6.974;2022-08-23T03:15:06;22.20;99.90
8231;DHT22;4156;50.908;6.974;2022-08-23T03:17:32;22.20;99.90
8231;DHT22;4156;50.908;6.974;2022-08-23T03:19:58;22.20;99.90
8231;DHT22;4156;50.908;6.974;2022-08-23T03:22:23;22.20;99.90
8231;DHT22;4156;50.908;6.974;2022-08-23T03:24:49;22.10;99.90
8231;DHT22;4156;50.908;6.974;2022-08-23T03:27:15;22.10;99.90
8231;DHT22;4156;50.908;6.974;2022-08-23T03:29:40;22.10;99.90
8231;DHT22;4156;50.908;6.974;2022-08-23T03:32:06;22.10;99.90
8231;DHT22;4156;50.908;6.974;2022-08-23T03:34:32;22.00;99.90
8231;DHT22;4156;50.908;6.974;2022-08-23T03:36:58;22.00;99.90
8231;DHT22;4156;50.908;6.974;2022-08-23T03:39:24;21.90;99.90
8231;DHT22;4156;50.908;6.974;2022-08-23T03:41:50;22.00;99.90
8231;DHT22;4156;50.908;6.974;2022-08-23T03:44:16;21.90;99.90
8231;DHT22;4156;50.908;6.974;2022-08-23T03:46:41;22.00;99.90
8231;DHT22;4156;50.908;6.974;2022-08-23T03:49:07;22.00;99.90
8231;DHT22;4156;50.908;6.974;2022-08-23T03:51:33;21.90;99.90
8231;DHT22;4156;50.908;6.974;2022-08-23T03:54:00;21.90;99.90
8231;DHT22;4156;50.908;6.974;2022-08-23T03:56:29;21.90;99.90
8231;DHT22;4156;50.908;6.974;2022-08-23T03:58:56;21.90;99.90
8231;DHT22;4156;50.908;6.974;2022-08-23T04:01:22;21.90;99.90
8231;DHT22;4156;50.908;6.974;2022-08-23T04:03:48;21.90;99.90
8231;DHT22;4156;50.908;6.974;2022-08-23T04:06:15;21.80;99.90
8231;DHT22;4156;50.908;6.974;2022-08-23T04:08:42;21.80;99.90
8231;DHT22;4156;50.908;6.974;2022-08-23T04:11:08;21.80;99.90
8231;DHT22;4156;50.908;6.974;2022-08-23T04:13:35;21.90;99.90
8231;DHT22;4156;50.908;6.974;2022-08-23T04:16:02;21.90;99.90
8231;DHT22;4156;50.908;6.974;2022-08-23T04:18:28;21.80;99.90
8231;DHT22;4156;50.908;6.974;2022-08-23T04:20:57;21.90;99.90
8231;DHT22;4156;50.908;6.974;2022-08-23T04:23:24;21.90;99.90
8231;DHT22;4156;50.908;6.974;2022-08-23T04:25:55;21.90;99.90
8231;DHT22;4156;50.908;6.974;2022-08-23T04:28:21;21.90;99.90
8231;DHT22;4156;50.908;6.974;2022-08-23T04:30:47;21.90;99.90
8231;DHT22;4156;50.908;6.974;2022-08-23T04:33:14;21.90;99.90
8231;DHT22;4156;50.908;6.974;2022-08-23T04:35:39;21.90;99.90
8231;DHT22;4156;50.908;6.974;2022-08-23T04:38:06;21.90;99.90
8231;DHT22;4156;50.908;6.974;2022-08-23T04:40:31;21.90;99.90
8231;DHT22;4156;50.908;6.974;2022-08-23T04:43:15;21.90;99.90
8231;DHT22;4156;50.908;6.974;2022-08-23T04:45:41;21.90;99.90
8231;DHT22;4156;50.908;6.974;2022-08-23T04:48:06;21.90;99.90
8231;DHT22;4156;50.908;6.974;2022-08-23T04:50:34;21.90;99.90
8231;DHT22;4156;50.908;6.974;2022-08-23T04:53:00;21.80;99.90
8231;DHT22;4156;50.908;6.974;2022-08-23T04:55:26;21.80;99.90
8231;DHT22;4156;50.908;6.974;2022-08-23T04:57:51;21.80;99.90
8231;DHT22;4156;50.908;6.974;2022-08-23T05:00:17;21.80;99.90
8231;DHT22;4156;50.908;6.974;2022-08-23T05:02:42;21.90;99.90
8231;DHT22;4156;50.908;6.974;2022-08-23T05:05:09;21.90;99.90
8231;DHT22;4156;50.908;6.974;2022-08-23T05:07:36;21.90;99.90
8231;DHT22;4156;50.908;6.974;2022-08-23T05:10:04;21.90;99.90
8231;DHT22;4156;50.908;6.974;2022-08-23T05:12:29;21.90;99.90
8231;DHT22;4156;50.908;6.974;2022-08-23T05:14:55;21.90;99.90
8231;DHT22;4156;50.908;6.974;2022-08-23T05:17:21;21.90;99.90
8231;DHT22;4156;50.908;6.974;2022-08-23T05:19:46;21.90;99.90
8231;DHT22;4156;50.908;6.974;2022-08-23T05:22:12;21.90;99.90
8231;DHT22;4156;50.908;6.974;2022-08-23T05:24:37;21.90;99.90
8231;DHT22;4156;50.908;6.974;2022-08-23T05:27:03;21.90;99.90
8231;DHT22;4156;50.908;6.974;2022-08-23T05:29:28;21.90;99.90
8231;DHT22;4156;50.908;6.974;2022-08-23T05:31:54;21.90;99.90
8231;DHT22;4156;50.908;6.974;2022-08-23T05:34:22;22.00;99.90
8231;DHT22;4156;50.908;6.974;2022-08-23T05:36:48;22.00;99.90
8231;DHT22;4156;50.908;6.974;2022-08-23T05:39:14;22.00;99.90
8231;DHT22;4156;50.908;6.974;2022-08-23T05:41:40;22.00;99.90
8231;DHT22;4156;50.908;6.974;2022-08-23T05:44:07;21.90;99.90
8231;DHT22;4156;50.908;6.974;2022-08-23T05:46:32;21.90;99.90
8231;DHT22;4156;50.908;6.974;2022-08-23T05:48:58;22.00;99.90
8231;DHT22;4156;50.908;6.974;2022-08-23T05:51:28;22.00;99.90
8231;DHT22;4156;50.908;6.974;2022-08-23T05:53:57;22.10;99.90
8231;DHT22;4156;50.908;6.974;2022-08-23T05:56:25;22.10;99.90
8231;DHT22;4156;50.908;6.974;2022-08-23T05:58:54;22.10;99.90
8231;DHT22;4156;50.908;6.974;2022-08-23T06:01:21;22.20;99.90
8231;DHT22;4156;50.908;6.974;2022-08-23T06:03:47;22.20;99.90
8231;DHT22;4156;50.908;6.974;2022-08-23T06:06:14;22.20;99.90
8231;DHT22;4156;50.908;6.974;2022-08-23T06:08:41;22.20;99.90
8231;DHT22;4156;50.908;6.974;2022-08-23T06:11:13;22.20;99.90
8231;DHT22;4156;50.908;6.974;2022-08-23T06:13:41;22.20;99.90
8231;DHT22;4156;50.908;6.974;2022-08-23T06:16:08;22.30;99.90
8231;DHT22;4156;50.908;6.974;2022-08-23T06:18:33;22.70;99.90
8231;DHT22;4156;50.908;6.974;2022-08-23T06:21:01;22.30;99.90
8231;DHT22;4156;50.908;6.974;2022-08-23T06:23:27;22.40;99.90
8231;DHT22;4156;50.908;6.974;2022-08-23T06:25:52;22.40;99.90
8231;DHT22;4156;50.908;6.974;2022-08-23T06:28:18;22.40;99.90
8231;DHT22;4156;50.908;6.974;2022-08-23T06:30:43;22.40;99.90
8231;DHT22;4156;50.908;6.974;2022-08-23T06:33:11;22.40;99.90
8231;DHT22;4156;50.908;6.974;2022-08-23T06:35:38;22.50;99.90
8231;DHT22;4156;50.908;6.974;2022-08-23T06:38:03;22.50;99.90
8231;DHT22;4156;50.908;6.974;2022-08-23T06:40:29;22.50;99.90
8231;DHT22;4156;50.908;6.974;2022-08-23T06:42:57;22.50;99.90
8231;DHT22;4156;50.908;6.974;2022-08-23T06:45:22;22.50;99.90
8231;DHT22;4156;50.908;6.974;2022-08-23T06:47:48;22.60;99.90
8231;DHT22;4156;50.908;6.974;2022-08-23T06:50:14;22.60;99.90
8231;DHT22;4156;50.908;6.974;2022-08-23T06:52:39;22.60;99.90
8231;DHT22;4156;50.908;6.974;2022-08-23T06:55:05;22.60;99.90
8231;DHT22;4156;50.908;6.974;2022-08-23T06:57:31;22.60;99.90
8231;DHT22;4156;50.908;6.974;2022-08-23T06:59:56;22.70;99.90
8231;DHT22;4156;50.908;6.974;2022-08-23T07:02:22;22.60;99.90
8231;DHT22;4156;50.908;6.974;2022-08-23T07:04:48;22.70;99.90
8231;DHT22;4156;50.908;6.974;2022-08-23T07:07:18;22.70;99.90
8231;DHT22;4156;50.908;6.974;2022-08-23T07:09:44;22.80;99.90
8231;DHT22;4156;50.908;6.974;2022-08-23T07:12:09;22.80;99.90
8231;DHT22;4156;50.908;6.974;2022-08-23T07:14:36;22.80;99.90
8231;DHT22;4156;50.908;6.974;2022-08-23T07:17:02;22.80;99.90
8231;DHT22;4156;50.908;6.974;2022-08-23T07:19:33;22.90;99.90
8231;DHT22;4156;50.908;6.974;2022-08-23T07:21:59;22.90;99.90
8231;DHT22;4156;50.908;6.974;2022-08-23T07:24:25;23.00;99.90
8231;DHT22;4156;50.908;6.974;2022-08-23T07:26:51;23.00;99.90
8231;DHT22;4156;50.908;6.974;2022-08-23T07:29:18;23.00;99.90
8231;DHT22;4156;50.908;6.974;2022-08-23T07:31:47;23.10;99.90
8231;DHT22;4156;50.908;6.974;2022-08-23T07:34:13;23.10;99.90
8231;DHT22;4156;50.908;6.974;2022-08-23T07:36:41;23.10;99.90
8231;DHT22;4156;50.908;6.974;2022-08-23T07:39:08;23.10;99.90
8231;DHT22;4156;50.908;6.974;2022-08-23T07:41:34;23.20;99.90
8231;DHT22;4156;50.908;6.974;2022-08-23T07:44:04;23.20;99.90
8231;DHT22;4156;50.908;6.974;2022-08-23T07:46:31;23.20;99.90
8231;DHT22;4156;50.908;6.974;2022-08-23T07:48:58;23.20;99.90
8231;DHT22;4156;50.908;6.974;2022-08-23T07:51:24;23.30;99.90
8231;DHT22;4156;50.908;6.974;2022-08-23T07:53:50;23.30;99.90
8231;DHT22;4156;50.908;6.974;2022-08-23T07:56:18;23.30;99.90
8231;DHT22;4156;50.908;6.974;2022-08-23T07:58:44;23.30;99.90
8231;DHT22;4156;50.908;6.974;2022-08-23T08:01:13;23.40;99.90
8231;DHT22;4156;50.908;6.974;2022-08-23T08:03:41;23.40;99.90
8231;DHT22;4156;50.908;6.974;2022-08-23T08:06:13;23.40;99.90
8231;DHT22;4156;50.908;6.974;2022-08-23T08:08:40;23.40;99.90
8231;DHT22;4156;50.908;6.974;2022-08-23T08:11:08;23.50;99.90
8231;DHT22;4156;50.908;6.974;2022-08-23T08:13:40;23.50;99.90
8231;DHT22;4156;50.908;6.974;2022-08-23T08:16:07;23.50;99.90
8231;DHT22;4156;50.908;6.974;2022-08-23T08:18:34;23.60;99.90
8231;DHT22;4156;50.908;6.974;2022-08-23T08:21:00;23.60;99.90
8231;DHT22;4156;50.908;6.974;2022-08-23T08:23:26;23.60;99.90
8231;DHT22;4156;50.908;6.974;2022-08-23T08:26:01;23.70;99.90
8231;DHT22;4156;50.908;6.974;2022-08-23T08:28:27;23.70;99.90
8231;DHT22;4156;50.908;6.974;2022-08-23T08:30:52;23.70;99.90
8231;DHT22;4156;50.908;6.974;2022-08-23T08:33:18;23.70;99.90
8231;DHT22;4156;50.908;6.974;2022-08-23T08:35:47;23.80;99.90
8231;DHT22;4156;50.908;6.974;2022-08-23T08:38:13;23.80;99.90
8231;DHT22;4156;50.908;6.974;2022-08-23T08:40:39;23.80;99.90
8231;DHT22;4156;50.908;6.974;2022-08-23T08:44:22;23.90;99.90
8231;DHT22;4156;50.908;6.974;2022-08-23T08:46:41;23.90;99.90
8231;DHT22;4156;50.908;6.974;2022-08-23T08:49:12;23.90;99.90
8231;DHT22;4156;50.908;6.974;2022-08-23T08:51:59;23.90;99.90
8231;DHT22;4156;50.908;6.974;2022-08-23T08:54:28;23.90;99.90
8231;DHT22;4156;50.908;6.974;2022-08-23T08:56:57;24.00;99.90
8231;DHT22;4156;50.908;6.974;2022-08-23T09:02:04;24.10;99.90
8231;DHT22;4156;50.908;6.974;2022-08-23T09:04:29;24.10;99.90
8231;DHT22;4156;50.908;6.974;2022-08-23T09:07:15;24.10;99.90
8231;DHT22;4156;50.908;6.974;2022-08-23T09:15:37;24.20;99.90
8231;DHT22;4156;50.908;6.974;2022-08-23T09:18:16;24.30;99.90
8231;DHT22;4156;50.908;6.974;2022-08-23T09:20:43;24.20;99.90
8231;DHT22;4156;50.908;6.974;2022-08-23T09:23:21;24.30;99.90
8231;DHT22;4156;50.908;6.974;2022-08-23T09:25:57;24.30;99.90
8231;DHT22;4156;50.908;6.974;2022-08-23T09:28:25;24.30;99.90
8231;DHT22;4156;50.908;6.974;2022-08-23T09:30:55;24.30;99.90
8231;DHT22;4156;50.908;6.974;2022-08-23T09:33:24;24.30;99.90
8231;DHT22;4156;50.908;6.974;2022-08-23T09:36:23;24.30;99.90
8231;DHT22;4156;50.908;6.974;2022-08-23T09:39:02;24.30;99.90
8231;DHT22;4156;50.908;6.974;2022-08-23T09:41:35;24.40;99.90
8231;DHT22;4156;50.908;6.974;2022-08-23T09:44:03;24.50;99.90
8231;DHT22;4156;50.908;6.974;2022-08-23T09:46:33;24.50;99.90
8231;DHT22;4156;50.908;6.974;2022-08-23T09:49:27;24.50;99.90
8231;DHT22;4156;50.908;6.974;2022-08-23T09:51:57;24.50;99.90
8231;DHT22;4156;50.908;6.974;2022-08-23T09:54:33;24.60;99.90
8231;DHT22;4156;50.908;6.974;2022-08-23T09:57:02;24.60;99.90
8231;DHT22;4156;50.908;6.974;2022-08-23T09:59:42;24.60;99.90
8231;DHT22;4156;50.908;6.974;2022-08-23T10:05:05;24.60;99.90
8231;DHT22;4156;50.908;6.974;2022-08-23T10:07:37;24.60;99.90
8231;DHT22;4156;50.908;6.974;2022-08-23T10:10:24;24.70;99.90
8231;DHT22;4156;50.908;6.974;2022-08-23T10:12:53;24.70;99.90
8231;DHT22;4156;50.908;6.974;2022-08-23T10:15:22;24.80;99.90
8231;DHT22;4156;50.908;6.974;2022-08-23T10:18:06;24.80;99.90
8231;DHT22;4156;50.908;6.974;2022-08-23T10:20:40;24.80;99.90
8231;DHT22;4156;50.908;6.974;2022-08-23T10:23:34;24.80;99.90
8231;DHT22;4156;50.908;6.974;2022-08-23T10:26:05;24.90;99.90
8231;DHT22;4156;50.908;6.974;2022-08-23T10:28:49;24.90;99.90
8231;DHT22;4156;50.908;6.974;2022-08-23T10:31:47;24.90;99.90
8231;DHT22;4156;50.908;6.974;2022-08-23T10:39:31;25.00;99.90
8231;DHT22;4156;50.908;6.974;2022-08-23T10:47:59;25.10;99.90
8231;DHT22;4156;50.908;6.974;2022-08-23T10:50:40;25.10;99.90
8231;DHT22;4156;50.908;6.974;2022-08-23T10:53:11;25.10;99.90
8231;DHT22;4156;50.908;6.974;2022-08-23T10:55:57;25.10;99.90
8231;DHT22;4156;50.908;6.974;2022-08-23T10:58:45;25.10;99.90
8231;DHT22;4156;50.908;6.974;2022-08-23T11:01:22;25.10;99.90
8231;DHT22;4156;50.908;6.974;2022-08-23T11:04:05;25.10;99.90
8231;DHT22;4156;50.908;6.974;2022-08-23T11:11:47;25.20;99.90
8231;DHT22;4156;50.908;6.974;2022-08-23T11:14:35;25.20;99.90
8231;DHT22;4156;50.908;6.974;2022-08-23T11:17:09;25.30;99.90
8231;DHT22;4156;50.908;6.974;2022-08-23T11:20:02;25.30;99.90
8231;DHT22;4156;50.908;6.974;2022-08-23T11:27:44;25.40;99.90
8231;DHT22;4156;50.908;6.974;2022-08-23T11:33:12;25.40;99.90
8231;DHT22;4156;50.908;6.974;2022-08-23T11:35:50;25.40;99.90
8231;DHT22;4156;50.908;6.974;2022-08-23T11:43:45;25.50;99.90
8231;DHT22;4156;50.908;6.974;2022-08-23T11:46:26;25.50;99.90
8231;DHT22;4156;50.908;6.974;2022-08-23T11:49:02;25.50;99.90
8231;DHT22;4156;50.908;6.974;2022-08-23T11:51:58;25.60;99.90
8231;DHT22;4156;50.908;6.974;2022-08-23T12:02:34;25.60;99.90
8231;DHT22;4156;50.908;6.974;2022-08-23T12:18:34;25.80;99.90
8231;DHT22;4156;50.908;6.974;2022-08-23T12:21:02;25.80;99.90
8231;DHT22;4156;50.908;6.974;2022-08-23T12:23:28;25.90;99.90
8231;DHT22;4156;50.908;6.974;2022-08-23T12:26:11;25.90;99.90
8231;DHT22;4156;50.908;6.974;2022-08-23T12:28:42;26.00;99.90
8231;DHT22;4156;50.908;6.974;2022-08-23T12:31:30;26.00;99.90
8231;DHT22;4156;50.908;6.974;2022-08-23T12:39:39;26.00;99.90
8231;DHT22;4156;50.908;6.974;2022-08-23T12:42:14;26.00;99.90
8231;DHT22;4156;50.908;6.974;2022-08-23T12:44:42;26.00;99.90
8231;DHT22;4156;50.908;6.974;2022-08-23T12:47:14;26.10;99.90
8231;DHT22;4156;50.908;6.974;2022-08-23T12:49:41;26.10;99.90
8231;DHT22;4156;50.908;6.974;2022-08-23T12:52:17;26.10;99.90
8231;DHT22;4156;50.908;6.974;2022-08-23T12:54:49;26.10;99.90
8231;DHT22;4156;50.908;6.974;2022-08-23T12:57:24;26.10;99.90
8231;DHT22;4156;50.908;6.974;2022-08-23T13:02:56;26.20;99.90
8231;DHT22;4156;50.908;6.974;2022-08-23T13:05:34;26.20;99.90
8231;DHT22;4156;50.908;6.974;2022-08-23T13:08:04;26.20;99.90
8231;DHT22;4156;50.908;6.974;2022-08-23T13:10:32;26.20;99.90
8231;DHT22;4156;50.908;6.974;2022-08-23T13:12:58;26.20;99.90
8231;DHT22;4156;50.908;6.974;2022-08-23T13:18:42;26.20;99.90
8231;DHT22;4156;50.908;6.974;2022-08-23T13:21:24;26.20;99.90
8231;DHT22;4156;50.908;6.974;2022-08-23T13:23:53;26.20;99.90
8231;DHT22;4156;50.908;6.974;2022-08-23T13:32:00;26.30;99.90
8231;DHT22;4156;50.908;6.974;2022-08-23T13:37:05;26.40;99.90
8231;DHT22;4156;50.908;6.974;2022-08-23T13:39:34;26.40;99.90
8231;DHT22;4156;50.908;6.974;2022-08-23T13:41:59;26.40;99.90
8231;DHT22;4156;50.908;6.974;2022-08-23T13:44:25;26.50;99.90
8231;DHT22;4156;50.908;6.974;2022-08-23T13:46:51;26.50;99.90
8231;DHT22;4156;50.908;6.974;2022-08-23T13:49:23;26.40;99.90
8231;DHT22;4156;50.908;6.974;2022-08-23T13:54:24;26.60;99.90
8231;DHT22;4156;50.908;6.974;2022-08-23T13:57:01;26.60;99.90
8231;DHT22;4156;50.908;6.974;2022-08-23T13:59:33;26.60;99.90
8231;DHT22;4156;50.908;6.974;2022-08-23T14:02:02;26.60;99.90
8231;DHT22;4156;50.908;6.974;2022-08-23T14:04:28;26.60;99.90
8231;DHT22;4156;50.908;6.974;2022-08-23T14:06:54;26.60;99.90
8231;DHT22;4156;50.908;6.974;2022-08-23T14:09:19;26.60;99.90
8231;DHT22;4156;50.908;6.974;2022-08-23T14:11:51;26.60;99.90
8231;DHT22;4156;50.908;6.974;2022-08-23T14:14:17;26.70;99.90
8231;DHT22;4156;50.908;6.974;2022-08-23T14:16:43;26.70;99.90
8231;DHT22;4156;50.908;6.974;2022-08-23T14:19:10;26.60;99.90
8231;DHT22;4156;50.908;6.974;2022-08-23T14:21:36;26.70;99.90
8231;DHT22;4156;50.908;6.974;2022-08-23T14:24:02;26.70;99.90
8231;DHT22;4156;50.908;6.974;2022-08-23T14:26:28;26.70;99.90
8231;DHT22;4156;50.908;6.974;2022-08-23T14:28:54;26.70;99.90
8231;DHT22;4156;50.908;6.974;2022-08-23T14:31:19;26.70;99.90
8231;DHT22;4156;50.908;6.974;2022-08-23T14:33:48;26.70;99.90
8231;DHT22;4156;50.908;6.974;2022-08-23T14:36:14;26.80;99.90
8231;DHT22;4156;50.908;6.974;2022-08-23T14:38:40;26.80;99.90
8231;DHT22;4156;50.908;6.974;2022-08-23T14:41:12;26.80;99.90
8231;DHT22;4156;50.908;6.974;2022-08-23T14:43:38;26.80;99.90
8231;DHT22;4156;50.908;6.974;2022-08-23T14:46:04;26.80;99.90
8231;DHT22;4156;50.908;6.974;2022-08-23T14:48:29;26.80;99.90
8231;DHT22;4156;50.908;6.974;2022-08-23T14:50:56;26.80;99.90
8231;DHT22;4156;50.908;6.974;2022-08-23T14:53:27;26.80;99.90
8231;DHT22;4156;50.908;6.974;2022-08-23T14:55:53;26.90;99.90
8231;DHT22;4156;50.908;6.974;2022-08-23T14:58:20;26.90;99.90
8231;DHT22;4156;50.908;6.974;2022-08-23T15:00:46;26.90;99.90
8231;DHT22;4156;50.908;6.974;2022-08-23T15:03:17;26.90;99.90
8231;DHT22;4156;50.908;6.974;2022-08-23T15:05:43;26.90;99.90
8231;DHT22;4156;50.908;6.974;2022-08-23T15:08:09;27.00;99.90
8231;DHT22;4156;50.908;6.974;2022-08-23T15:10:34;27.00;99.90
8231;DHT22;4156;50.908;6.974;2022-08-23T15:13:00;27.00;99.90
8231;DHT22;4156;50.908;6.974;2022-08-23T15:15:26;26.90;99.90
8231;DHT22;4156;50.908;6.974;2022-08-23T15:17:56;27.00;99.90
8231;DHT22;4156;50.908;6.974;2022-08-23T15:20:25;27.10;99.90
8231;DHT22;4156;50.908;6.974;2022-08-23T15:22:50;27.10;99.90
8231;DHT22;4156;50.908;6.974;2022-08-23T15:25:16;27.10;99.90
8231;DHT22;4156;50.908;6.974;2022-08-23T15:27:42;27.10;99.90
8231;DHT22;4156;50.908;6.974;2022-08-23T15:30:13;27.10;99.90
8231;DHT22;4156;50.908;6.974;2022-08-23T15:32:40;27.10;99.90
8231;DHT22;4156;50.908;6.974;2022-08-23T15:35:06;27.20;99.90
8231;DHT22;4156;50.908;6.974;2022-08-23T15:37:32;27.10;99.90
8231;DHT22;4156;50.908;6.974;2022-08-23T15:39:58;27.20;99.90
8231;DHT22;4156;50.908;6.974;2022-08-23T15:42:24;27.20;99.90
8231;DHT22;4156;50.908;6.974;2022-08-23T15:44:49;27.20;99.90
8231;DHT22;4156;50.908;6.974;2022-08-23T15:47:22;27.20;99.90
8231;DHT22;4156;50.908;6.974;2022-08-23T15:49:48;27.20;99.90
8231;DHT22;4156;50.908;6.974;2022-08-23T15:52:14;27.20;99.90
8231;DHT22;4156;50.908;6.974;2022-08-23T15:54:40;27.20;99.90
8231;DHT22;4156;50.908;6.974;2022-08-23T15:57:05;27.30;99.90
8231;DHT22;4156;50.908;6.974;2022-08-23T15:59:32;27.20;99.90
8231;DHT22;4156;50.908;6.974;2022-08-23T16:02:00;27.20;99.90
8231;DHT22;4156;50.908;6.974;2022-08-23T16:04:26;27.20;99.90
8231;DHT22;4156;50.908;6.974;2022-08-23T16:06:52;27.20;99.90
8231;DHT22;4156;50.908;6.974;2022-08-23T16:09:22;27.20;99.90
8231;DHT22;4156;50.908;6.974;2022-08-23T16:11:49;27.20;99.90
8231;DHT22;4156;50.908;6.974;2022-08-23T16:14:15;27.20;99.90
8231;DHT22;4156;50.908;6.974;2022-08-23T16:16:41;27.20;99.90
8231;DHT22;4156;50.908;6.974;2022-08-23T16:19:11;27.30;99.90
8231;DHT22;4156;50.908;6.974;2022-08-23T16:21:36;27.30;99.90
8231;DHT22;4156;50.908;6.974;2022-08-23T16:24:03;27.30;99.90
8231;DHT22;4156;50.908;6.974;2022-08-23T16:26:32;27.20;99.90
8231;DHT22;4156;50.908;6.974;2022-08-23T16:28:59;27.30;99.90
8231;DHT22;4156;50.908;6.974;2022-08-23T16:31:26;27.30;99.90
8231;DHT22;4156;50.908;6.974;2022-08-23T16:33:55;27.30;99.90
8231;DHT22;4156;50.908;6.974;2022-08-23T16:36:20;27.30;99.90
8231;DHT22;4156;50.908;6.974;2022-08-23T16:38:46;27.30;99.90
8231;DHT22;4156;50.908;6.974;2022-08-23T16:41:12;27.30;99.90
8231;DHT22;4156;50.908;6.974;2022-08-23T16:43:38;27.30;99.90
8231;DHT22;4156;50.908;6.974;2022-08-23T16:46:05;27.30;99.90
8231;DHT22;4156;50.908;6.974;2022-08-23T16:48:31;27.30;99.90
8231;DHT22;4156;50.908;6.974;2022-08-23T16:50:56;27.40;99.90
8231;DHT22;4156;50.908;6.974;2022-08-23T16:53:22;27.40;99.90
8231;DHT22;4156;50.908;6.974;2022-08-23T16:55:49;27.30;99.90
8231;DHT22;4156;50.908;6.974;2022-08-23T16:58:15;27.30;99.90
8231;DHT22;4156;50.908;6.974;2022-08-23T17:00:40;27.40;99.90
8231;DHT22;4156;50.908;6.974;2022-08-23T17:03:06;27.40;99.90
8231;DHT22;4156;50.908;6.974;2022-08-23T17:05:32;27.40;99.90
8231;DHT22;4156;50.908;6.974;2022-08-23T17:07:57;27.40;99.90
8231;DHT22;4156;50.908;6.974;2022-08-23T17:10:23;27.30;99.90
8231;DHT22;4156;50.908;6.974;2022-08-23T17:12:51;27.30;99.90
8231;DHT22;4156;50.908;6.974;2022-08-23T17:15:24;27.30;99.90
8231;DHT22;4156;50.908;6.974;2022-08-23T17:17:50;27.30;99.90
8231;DHT22;4156;50.908;6.974;2022-08-23T17:20:19;27.40;99.90
8231;DHT22;4156;50.908;6.974;2022-08-23T17:22:45;27.30;99.90
8231;DHT22;4156;50.908;6.974;2022-08-23T17:25:11;27.40;99.90
8231;DHT22;4156;50.908;6.974;2022-08-23T17:27:38;27.30;99.90
8231;DHT22;4156;50.908;6.974;2022-08-23T17:30:07;27.30;99.90
8231;DHT22;4156;50.908;6.974;2022-08-23T17:32:33;27.40;99.90
8231;DHT22;4156;50.908;6.974;2022-08-23T17:34:58;27.30;99.90
8231;DHT22;4156;50.908;6.974;2022-08-23T17:37:25;27.30;99.90
8231;DHT22;4156;50.908;6.974;2022-08-23T17:39:50;27.40;99.90
8231;DHT22;4156;50.908;6.974;2022-08-23T17:42:16;27.30;99.90
8231;DHT22;4156;50.908;6.974;2022-08-23T17:44:42;27.30;99.90
8231;DHT22;4156;50.908;6.974;2022-08-23T17:47:14;27.30;99.90